EBCILFOC

Guest
Details From EBCI - Brussels South - Charleroi
To LFOC - Chateaudun AB
Flight Number -
Tags generated
Created
Modified
Stats Distance 189 nm / 350 km
Max Altitude 20,300 ft / 6,187 m
Waypoints 3
Social Downloads 1
Likes 0
Share VATSIM

Download

Looking for another format? Having issues loading an existing format? Contact us
Advertisement - Login to hide

Notes

Basic altitude profile: - Ascent Rate: 2500ft/min - Ascent Speed: 250kts - Cruise Altitude: 35000ft - Cruise Speed: 420kts - Descent Rate: 1500ft/min - Descent Speed: 250kts Options: - Use NATs: yes - Use PACOTS: yes - Use low airways: yes - Use high airways: yes

Route

EBCI BSN LFOC

ID Type Via Altitude Latitude Longitude Leg Dist Tot Dist Heading (true) Name
O EBCI APT - 0 ft / 0 m 50.45995˚ 4.45312˚ - 0 nm - Brussels South - Charleroi
BSN VOR - 20,300 ft / 6,187 m 49.18831˚ 3.05647˚ 93 nm 93 nm 216° / 215° BOURSONNE VOR-DME
O LFOC APT - 0 ft / 0 m 48.05814˚ 1.37662˚ 95 nm 188 nm 225° / 224° Chateaudun AB

Altitude Profile

Advertisement - Login to hide

Weather


0- 5 10 15 20 25 30 35+ Temperature / ° C

Clouds and Precipitation
Forecast for 2017-12-17 18:00 UTC. Updated an hour ago

Ground ~20,000 ft ~40,000 ft Winds

EBCI

Details ICAO EBCI (CRL)
Name Brussels South - Charleroi
Region Belgium
Timezone Europe/Brussels (UTC+1.0)
Stats Elevation 614 ft / 187 m (AMSL)
Location 50.459947° 4.453125°
Runways 1
Magnetic Variation 1.135° E

METAR

EBCI 171350Z 25007KT 7000 FEW005 SCT007 BKN010 03/02 Q1024 BECMG 8000 BKN012

Decode

TAF

TAF EBCI 171107Z 1712/1818 25007KT 4500 BR BKN006 BECMG 1712/1714 8000 NSW SCT015 BECMG 1721/1722 19012KT BKN008 TEMPO 1720/1804 2000 DZRA BKN004 BECMG 1800/1802 27010KT BECMG 1802/1804 33010KT SCT008 BKN015 TEMPO 1804/1815 3500 -DZRA BKN008

Decode

Departure Runways

ID Width Length Bearing (true) Bearing (mag) Surface Threshold Offset Overrun Length
07 148 ft / 45 m 8,374 ft / 2,552 m 65.53° 64.40° Asphalt 1,476 ft / 450 m 0 ft / 0 m
25 148 ft / 45 m 8,374 ft / 2,552 m 245.55° 244.42° Asphalt 0 ft / 0 m 0 ft / 0 m

LFOC

Details ICAO LFOC
Name Chateaudun AB
Region France
Timezone Europe/Paris (UTC+1.0)
Stats Elevation 433 ft / 132 m (AMSL)
Location 48.058141° 1.376625°
Runways 1
Magnetic Variation 0.346° E

METAR

LFOC 171400Z AUTO 26006KT 9999 OVC003 04/03 Q1027

Decode

TAF

Not found

Destination Runways

ID Width Length Bearing (true) Bearing (mag) Surface Threshold Offset Overrun Length
10 148 ft / 45 m 7,532 ft / 2,296 m 98.03° 97.68° Asphalt 0 ft / 0 m 673 ft / 205 m
28 148 ft / 45 m 7,532 ft / 2,296 m 278.06° 277.71° Asphalt 0 ft / 0 m 663 ft / 202 m